sensor_id;sensor_type;location;lat;lon;timestamp;P1;durP1;ratioP1;P2;durP2;ratioP2
27275;SDS011;14772;47.398;8.080;2022-07-06T00:02:14;9.07;;;2.40;;
27275;SDS011;14772;47.398;8.080;2022-07-06T00:07:11;8.87;;;2.20;;
27275;SDS011;14772;47.398;8.080;2022-07-06T00:12:09;7.20;;;2.30;;
27275;SDS011;14772;47.398;8.080;2022-07-06T00:17:06;8.00;;;2.30;;
27275;SDS011;14772;47.398;8.080;2022-07-06T00:22:04;8.83;;;2.30;;
27275;SDS011;14772;47.398;8.080;2022-07-06T00:27:01;7.10;;;2.20;;
27275;SDS011;14772;47.398;8.080;2022-07-06T00:32:00;8.23;;;2.43;;
27275;SDS011;14772;47.398;8.080;2022-07-06T00:36:57;7.07;;;2.53;;
27275;SDS011;14772;47.398;8.080;2022-07-06T00:41:54;7.23;;;2.47;;
27275;SDS011;14772;47.398;8.080;2022-07-06T00:46:52;10.77;;;2.60;;
27275;SDS011;14772;47.398;8.080;2022-07-06T00:51:49;8.83;;;2.57;;
27275;SDS011;14772;47.398;8.080;2022-07-06T00:56:47;9.03;;;2.40;;
27275;SDS011;14772;47.398;8.080;2022-07-06T01:01:44;7.33;;;2.40;;
27275;SDS011;14772;47.398;8.080;2022-07-06T01:06:41;7.83;;;2.50;;
27275;SDS011;14772;47.398;8.080;2022-07-06T01:11:41;9.70;;;2.47;;
27275;SDS011;14772;47.398;8.080;2022-07-06T01:16:39;8.43;;;2.60;;
27275;SDS011;14772;47.398;8.080;2022-07-06T01:21:37;9.47;;;2.60;;
27275;SDS011;14772;47.398;8.080;2022-07-06T01:26:35;6.27;;;2.33;;
27275;SDS011;14772;47.398;8.080;2022-07-06T01:31:32;9.83;;;2.47;;
27275;SDS011;14772;47.398;8.080;2022-07-06T01:36:29;8.77;;;2.60;;
27275;SDS011;14772;47.398;8.080;2022-07-06T01:41:26;10.63;;;2.47;;
27275;SDS011;14772;47.398;8.080;2022-07-06T01:46:23;8.10;;;2.60;;
27275;SDS011;14772;47.398;8.080;2022-07-06T01:51:20;8.03;;;2.40;;
27275;SDS011;14772;47.398;8.080;2022-07-06T01:56:18;7.47;;;2.23;;
27275;SDS011;14772;47.398;8.080;2022-07-06T02:01:16;9.27;;;2.57;;
27275;SDS011;14772;47.398;8.080;2022-07-06T02:06:15;7.70;;;2.30;;
27275;SDS011;14772;47.398;8.080;2022-07-06T02:11:12;7.30;;;2.40;;
27275;SDS011;14772;47.398;8.080;2022-07-06T02:16:10;9.43;;;2.47;;
27275;SDS011;14772;47.398;8.080;2022-07-06T02:21:07;8.47;;;2.50;;
27275;SDS011;14772;47.398;8.080;2022-07-06T02:26:04;8.37;;;2.40;;
27275;SDS011;14772;47.398;8.080;2022-07-06T02:31:01;12.40;;;2.50;;
27275;SDS011;14772;47.398;8.080;2022-07-06T02:35:59;7.20;;;2.33;;
27275;SDS011;14772;47.398;8.080;2022-07-06T02:40:56;10.37;;;2.57;;
27275;SDS011;14772;47.398;8.080;2022-07-06T02:45:53;10.03;;;2.70;;
27275;SDS011;14772;47.398;8.080;2022-07-06T02:50:50;9.30;;;2.53;;
27275;SDS011;14772;47.398;8.080;2022-07-06T02:55:47;7.30;;;2.40;;
27275;SDS011;14772;47.398;8.080;2022-07-06T03:00:44;6.47;;;2.23;;
27275;SDS011;14772;47.398;8.080;2022-07-06T03:05:42;9.80;;;2.87;;
27275;SDS011;14772;47.398;8.080;2022-07-06T03:10:39;10.20;;;2.60;;
27275;SDS011;14772;47.398;8.080;2022-07-06T03:15:36;8.87;;;2.80;;
27275;SDS011;14772;47.398;8.080;2022-07-06T03:20:33;6.00;;;2.40;;
27275;SDS011;14772;47.398;8.080;2022-07-06T03:25:30;7.97;;;2.40;;
27275;SDS011;14772;47.398;8.080;2022-07-06T03:30:27;8.03;;;2.70;;
27275;SDS011;14772;47.398;8.080;2022-07-06T03:35:24;11.07;;;2.40;;
27275;SDS011;14772;47.398;8.080;2022-07-06T03:40:22;10.67;;;2.50;;
27275;SDS011;14772;47.398;8.080;2022-07-06T03:45:19;6.93;;;2.50;;
27275;SDS011;14772;47.398;8.080;2022-07-06T03:50:16;8.50;;;2.60;;
27275;SDS011;14772;47.398;8.080;2022-07-06T03:55:13;9.37;;;3.00;;
27275;SDS011;14772;47.398;8.080;2022-07-06T04:00:11;8.87;;;2.60;;
27275;SDS011;14772;47.398;8.080;2022-07-06T04:05:10;7.43;;;2.60;;
27275;SDS011;14772;47.398;8.080;2022-07-06T04:10:08;7.43;;;2.50;;
27275;SDS011;14772;47.398;8.080;2022-07-06T04:15:06;9.40;;;2.57;;
27275;SDS011;14772;47.398;8.080;2022-07-06T04:20:06;8.90;;;2.77;;
27275;SDS011;14772;47.398;8.080;2022-07-06T04:25:05;9.37;;;2.70;;
27275;SDS011;14772;47.398;8.080;2022-07-06T04:30:05;9.97;;;2.90;;
27275;SDS011;14772;47.398;8.080;2022-07-06T04:35:04;12.93;;;3.17;;
27275;SDS011;14772;47.398;8.080;2022-07-06T04:40:04;10.60;;;2.83;;
27275;SDS011;14772;47.398;8.080;2022-07-06T04:45:03;11.00;;;3.30;;
27275;SDS011;14772;47.398;8.080;2022-07-06T04:50:01;12.03;;;3.30;;
27275;SDS011;14772;47.398;8.080;2022-07-06T04:54:59;11.07;;;2.93;;
27275;SDS011;14772;47.398;8.080;2022-07-06T04:59:56;8.40;;;2.80;;
27275;SDS011;14772;47.398;8.080;2022-07-06T05:04:53;10.07;;;2.80;;
27275;SDS011;14772;47.398;8.080;2022-07-06T05:09:50;7.87;;;2.50;;
27275;SDS011;14772;47.398;8.080;2022-07-06T05:14:48;10.80;;;2.67;;
27275;SDS011;14772;47.398;8.080;2022-07-06T05:19:45;8.97;;;3.03;;
27275;SDS011;14772;47.398;8.080;2022-07-06T05:24:42;9.70;;;2.97;;
27275;SDS011;14772;47.398;8.080;2022-07-06T05:29:39;10.83;;;3.10;;
27275;SDS011;14772;47.398;8.080;2022-07-06T05:34:36;12.53;;;2.97;;
27275;SDS011;14772;47.398;8.080;2022-07-06T05:39:34;9.50;;;3.20;;
27275;SDS011;14772;47.398;8.080;2022-07-06T05:44:31;7.93;;;2.80;;
27275;SDS011;14772;47.398;8.080;2022-07-06T05:49:28;10.30;;;2.90;;
27275;SDS011;14772;47.398;8.080;2022-07-06T05:54:25;8.10;;;2.80;;
27275;SDS011;14772;47.398;8.080;2022-07-06T05:59:22;10.37;;;2.73;;
27275;SDS011;14772;47.398;8.080;2022-07-06T06:04:19;8.33;;;2.60;;
27275;SDS011;14772;47.398;8.080;2022-07-06T06:09:16;9.80;;;2.60;;
27275;SDS011;14772;47.398;8.080;2022-07-06T06:14:13;8.70;;;2.70;;
27275;SDS011;14772;47.398;8.080;2022-07-06T06:19:11;7.33;;;2.80;;
27275;SDS011;14772;47.398;8.080;2022-07-06T06:24:08;6.17;;;2.50;;
27275;SDS011;14772;47.398;8.080;2022-07-06T06:29:05;8.10;;;2.90;;
27275;SDS011;14772;47.398;8.080;2022-07-06T06:34:02;7.37;;;2.57;;
27275;SDS011;14772;47.398;8.080;2022-07-06T06:38:59;6.87;;;2.40;;
27275;SDS011;14772;47.398;8.080;2022-07-06T06:43:56;8.37;;;2.60;;
27275;SDS011;14772;47.398;8.080;2022-07-06T06:48:54;7.10;;;2.77;;
27275;SDS011;14772;47.398;8.080;2022-07-06T06:53:51;8.40;;;2.73;;
27275;SDS011;14772;47.398;8.080;2022-07-06T06:58:48;8.47;;;2.80;;
27275;SDS011;14772;47.398;8.080;2022-07-06T07:03:45;9.47;;;2.77;;
27275;SDS011;14772;47.398;8.080;2022-07-06T07:08:42;7.67;;;2.57;;
27275;SDS011;14772;47.398;8.080;2022-07-06T07:13:40;11.07;;;2.80;;
27275;SDS011;14772;47.398;8.080;2022-07-06T07:18:37;7.90;;;2.70;;
27275;SDS011;14772;47.398;8.080;2022-07-06T07:23:34;11.87;;;4.23;;
27275;SDS011;14772;47.398;8.080;2022-07-06T07:28:31;8.77;;;2.93;;
27275;SDS011;14772;47.398;8.080;2022-07-06T07:33:28;8.27;;;2.80;;
27275;SDS011;14772;47.398;8.080;2022-07-06T07:38:25;7.47;;;2.80;;
27275;SDS011;14772;47.398;8.080;2022-07-06T07:43:23;9.03;;;2.90;;
27275;SDS011;14772;47.398;8.080;2022-07-06T07:48:20;8.90;;;2.97;;
27275;SDS011;14772;47.398;8.080;2022-07-06T07:53:17;9.20;;;2.93;;
27275;SDS011;14772;47.398;8.080;2022-07-06T07:58:14;6.63;;;2.80;;
27275;SDS011;14772;47.398;8.080;2022-07-06T08:03:11;8.37;;;2.93;;
27275;SDS011;14772;47.398;8.080;2022-07-06T08:08:08;10.40;;;2.97;;
27275;SDS011;14772;47.398;8.080;2022-07-06T08:13:05;9.73;;;3.50;;
27275;SDS011;14772;47.398;8.080;2022-07-06T08:18:03;9.50;;;3.00;;
27275;SDS011;14772;47.398;8.080;2022-07-06T08:23:00;11.87;;;3.30;;
27275;SDS011;14772;47.398;8.080;2022-07-06T08:27:57;8.27;;;3.00;;
27275;SDS011;14772;47.398;8.080;2022-07-06T08:32:54;8.00;;;3.00;;
27275;SDS011;14772;47.398;8.080;2022-07-06T08:37:52;8.67;;;2.90;;
27275;SDS011;14772;47.398;8.080;2022-07-06T08:42:49;7.13;;;2.67;;
27275;SDS011;14772;47.398;8.080;2022-07-06T08:47:57;8.57;;;3.10;;
27275;SDS011;14772;47.398;8.080;2022-07-06T08:52:56;10.23;;;2.97;;
27275;SDS011;14772;47.398;8.080;2022-07-06T08:57:54;8.10;;;3.10;;
27275;SDS011;14772;47.398;8.080;2022-07-06T09:02:52;9.40;;;3.00;;
27275;SDS011;14772;47.398;8.080;2022-07-06T09:07:50;12.17;;;3.20;;
27275;SDS011;14772;47.398;8.080;2022-07-06T09:12:48;9.30;;;3.17;;
27275;SDS011;14772;47.398;8.080;2022-07-06T09:17:45;9.27;;;3.00;;
27275;SDS011;14772;47.398;8.080;2022-07-06T09:22:42;9.27;;;3.00;;
27275;SDS011;14772;47.398;8.080;2022-07-06T09:27:40;9.70;;;3.20;;
27275;SDS011;14772;47.398;8.080;2022-07-06T09:32:41;9.33;;;3.10;;
27275;SDS011;14772;47.398;8.080;2022-07-06T09:37:41;8.03;;;3.03;;
27275;SDS011;14772;47.398;8.080;2022-07-06T09:42:38;10.07;;;3.13;;
27275;SDS011;14772;47.398;8.080;2022-07-06T09:47:35;9.23;;;2.97;;
27275;SDS011;14772;47.398;8.080;2022-07-06T09:52:33;8.27;;;3.03;;
27275;SDS011;14772;47.398;8.080;2022-07-06T09:57:31;11.50;;;3.00;;
27275;SDS011;14772;47.398;8.080;2022-07-06T10:02:28;10.67;;;3.00;;
27275;SDS011;14772;47.398;8.080;2022-07-06T10:07:26;9.30;;;3.30;;
27275;SDS011;14772;47.398;8.080;2022-07-06T10:12:23;9.50;;;3.10;;
27275;SDS011;14772;47.398;8.080;2022-07-06T10:17:21;10.23;;;3.07;;
27275;SDS011;14772;47.398;8.080;2022-07-06T10:22:20;8.37;;;3.00;;
27275;SDS011;14772;47.398;8.080;2022-07-06T10:27:17;7.93;;;2.97;;
27275;SDS011;14772;47.398;8.080;2022-07-06T10:32:14;7.40;;;2.50;;
27275;SDS011;14772;47.398;8.080;2022-07-06T10:37:21;9.73;;;2.90;;
27275;SDS011;14772;47.398;8.080;2022-07-06T10:47:35;10.13;;;3.70;;
27275;SDS011;14772;47.398;8.080;2022-07-06T10:52:51;11.47;;;3.50;;
27275;SDS011;14772;47.398;8.080;2022-07-06T10:57:53;9.37;;;3.23;;
27275;SDS011;14772;47.398;8.080;2022-07-06T11:02:50;9.10;;;3.00;;
27275;SDS011;14772;47.398;8.080;2022-07-06T11:07:51;10.90;;;3.30;;
27275;SDS011;14772;47.398;8.080;2022-07-06T11:12:48;10.37;;;3.07;;
27275;SDS011;14772;47.398;8.080;2022-07-06T11:18:07;12.40;;;3.40;;
27275;SDS011;14772;47.398;8.080;2022-07-06T11:23:09;11.07;;;2.90;;
27275;SDS011;14772;47.398;8.080;2022-07-06T11:28:08;10.70;;;2.90;;
27275;SDS011;14772;47.398;8.080;2022-07-06T11:33:06;10.17;;;2.80;;
27275;SDS011;14772;47.398;8.080;2022-07-06T11:38:19;10.73;;;2.80;;
27275;SDS011;14772;47.398;8.080;2022-07-06T11:43:21;6.93;;;2.57;;
27275;SDS011;14772;47.398;8.080;2022-07-06T11:48:19;8.07;;;2.80;;
27275;SDS011;14772;47.398;8.080;2022-07-06T11:53:17;9.43;;;2.57;;
27275;SDS011;14772;47.398;8.080;2022-07-06T11:58:14;8.17;;;2.80;;
27275;SDS011;14772;47.398;8.080;2022-07-06T12:03:15;8.43;;;2.60;;
27275;SDS011;14772;47.398;8.080;2022-07-06T12:08:13;10.97;;;2.80;;
27275;SDS011;14772;47.398;8.080;2022-07-06T12:13:10;8.20;;;2.73;;
27275;SDS011;14772;47.398;8.080;2022-07-06T12:18:08;7.43;;;2.60;;
27275;SDS011;14772;47.398;8.080;2022-07-06T12:23:05;10.17;;;2.67;;
27275;SDS011;14772;47.398;8.080;2022-07-06T12:28:03;7.97;;;2.40;;
27275;SDS011;14772;47.398;8.080;2022-07-06T12:33:13;8.57;;;2.83;;
27275;SDS011;14772;47.398;8.080;2022-07-06T12:38:11;10.07;;;3.40;;
27275;SDS011;14772;47.398;8.080;2022-07-06T12:43:08;7.37;;;2.80;;
27275;SDS011;14772;47.398;8.080;2022-07-06T12:48:05;8.70;;;2.93;;
27275;SDS011;14772;47.398;8.080;2022-07-06T12:53:03;8.80;;;2.90;;
27275;SDS011;14772;47.398;8.080;2022-07-06T12:58:01;8.10;;;3.00;;
27275;SDS011;14772;47.398;8.080;2022-07-06T13:02:58;8.30;;;3.03;;
27275;SDS011;14772;47.398;8.080;2022-07-06T13:07:56;8.43;;;2.87;;
27275;SDS011;14772;47.398;8.080;2022-07-06T13:12:54;12.03;;;3.30;;
27275;SDS011;14772;47.398;8.080;2022-07-06T13:17:51;10.07;;;2.63;;
27275;SDS011;14772;47.398;8.080;2022-07-06T13:22:48;11.93;;;3.00;;
27275;SDS011;14772;47.398;8.080;2022-07-06T13:27:45;9.27;;;3.03;;
27275;SDS011;14772;47.398;8.080;2022-07-06T13:32:42;9.00;;;2.50;;
27275;SDS011;14772;47.398;8.080;2022-07-06T13:37:40;9.37;;;2.60;;
27275;SDS011;14772;47.398;8.080;2022-07-06T13:42:37;8.80;;;2.70;;
27275;SDS011;14772;47.398;8.080;2022-07-06T13:47:34;9.47;;;2.87;;
27275;SDS011;14772;47.398;8.080;2022-07-06T13:52:31;9.97;;;2.60;;
27275;SDS011;14772;47.398;8.080;2022-07-06T13:57:28;9.17;;;2.70;;
27275;SDS011;14772;47.398;8.080;2022-07-06T14:02:26;9.70;;;2.70;;
27275;SDS011;14772;47.398;8.080;2022-07-06T14:07:24;7.90;;;2.47;;
27275;SDS011;14772;47.398;8.080;2022-07-06T14:12:21;8.30;;;2.70;;
27275;SDS011;14772;47.398;8.080;2022-07-06T14:17:18;8.30;;;2.90;;
27275;SDS011;14772;47.398;8.080;2022-07-06T14:22:16;10.10;;;3.10;;
27275;SDS011;14772;47.398;8.080;2022-07-06T14:27:14;8.03;;;3.13;;
27275;SDS011;14772;47.398;8.080;2022-07-06T14:32:11;7.53;;;2.80;;
27275;SDS011;14772;47.398;8.080;2022-07-06T14:37:08;8.63;;;3.23;;
27275;SDS011;14772;47.398;8.080;2022-07-06T14:42:06;8.93;;;2.60;;
27275;SDS011;14772;47.398;8.080;2022-07-06T14:47:04;7.17;;;2.40;;
27275;SDS011;14772;47.398;8.080;2022-07-06T14:52:02;7.57;;;2.83;;
27275;SDS011;14772;47.398;8.080;2022-07-06T14:57:00;8.40;;;2.90;;
27275;SDS011;14772;47.398;8.080;2022-07-06T15:01:57;7.67;;;2.90;;
27275;SDS011;14772;47.398;8.080;2022-07-06T15:06:54;8.40;;;2.83;;
27275;SDS011;14772;47.398;8.080;2022-07-06T15:11:52;6.70;;;2.70;;
27275;SDS011;14772;47.398;8.080;2022-07-06T15:16:49;8.03;;;2.83;;
27275;SDS011;14772;47.398;8.080;2022-07-06T15:21:48;6.67;;;2.67;;
27275;SDS011;14772;47.398;8.080;2022-07-06T15:26:45;11.10;;;3.10;;
27275;SDS011;14772;47.398;8.080;2022-07-06T15:31:42;8.23;;;3.10;;
27275;SDS011;14772;47.398;8.080;2022-07-06T15:36:39;7.90;;;2.80;;
27275;SDS011;14772;47.398;8.080;2022-07-06T15:41:37;8.00;;;3.13;;
27275;SDS011;14772;47.398;8.080;2022-07-06T15:46:34;9.70;;;3.10;;
27275;SDS011;14772;47.398;8.080;2022-07-06T15:51:31;10.87;;;5.80;;
27275;SDS011;14772;47.398;8.080;2022-07-06T15:56:28;13.30;;;4.80;;
27275;SDS011;14772;47.398;8.080;2022-07-06T16:01:25;8.10;;;3.00;;
27275;SDS011;14772;47.398;8.080;2022-07-06T16:06:23;9.10;;;3.27;;
27275;SDS011;14772;47.398;8.080;2022-07-06T16:11:20;10.60;;;3.40;;
27275;SDS011;14772;47.398;8.080;2022-07-06T16:16:17;11.13;;;3.60;;
27275;SDS011;14772;47.398;8.080;2022-07-06T16:21:14;9.30;;;3.50;;
27275;SDS011;14772;47.398;8.080;2022-07-06T16:26:11;10.83;;;3.77;;
27275;SDS011;14772;47.398;8.080;2022-07-06T16:31:09;9.40;;;3.20;;
27275;SDS011;14772;47.398;8.080;2022-07-06T16:36:07;9.67;;;3.47;;
27275;SDS011;14772;47.398;8.080;2022-07-06T16:41:05;12.20;;;3.47;;
27275;SDS011;14772;47.398;8.080;2022-07-06T16:46:02;10.67;;;3.77;;
27275;SDS011;14772;47.398;8.080;2022-07-06T16:51:00;10.07;;;3.67;;
27275;SDS011;14772;47.398;8.080;2022-07-06T16:56:00;10.13;;;3.30;;
27275;SDS011;14772;47.398;8.080;2022-07-06T17:00:57;10.17;;;3.67;;
27275;SDS011;14772;47.398;8.080;2022-07-06T17:05:54;9.97;;;3.50;;
27275;SDS011;14772;47.398;8.080;2022-07-06T17:10:51;9.97;;;3.57;;
27275;SDS011;14772;47.398;8.080;2022-07-06T17:15:48;11.13;;;3.50;;
27275;SDS011;14772;47.398;8.080;2022-07-06T17:20:45;10.87;;;3.60;;
27275;SDS011;14772;47.398;8.080;2022-07-06T17:25:42;10.50;;;3.70;;
27275;SDS011;14772;47.398;8.080;2022-07-06T17:30:40;11.13;;;3.83;;
27275;SDS011;14772;47.398;8.080;2022-07-06T17:35:37;11.80;;;3.83;;
27275;SDS011;14772;47.398;8.080;2022-07-06T17:40:36;10.30;;;3.60;;
27275;SDS011;14772;47.398;8.080;2022-07-06T17:45:34;12.33;;;3.90;;
27275;SDS011;14772;47.398;8.080;2022-07-06T17:50:31;11.80;;;4.30;;
27275;SDS011;14772;47.398;8.080;2022-07-06T17:55:28;11.10;;;3.90;;
27275;SDS011;14772;47.398;8.080;2022-07-06T18:00:25;10.37;;;3.80;;
27275;SDS011;14772;47.398;8.080;2022-07-06T18:05:23;9.50;;;3.80;;
27275;SDS011;14772;47.398;8.080;2022-07-06T18:10:21;9.30;;;3.57;;
27275;SDS011;14772;47.398;8.080;2022-07-06T18:15:19;10.53;;;4.00;;
27275;SDS011;14772;47.398;8.080;2022-07-06T18:20:16;8.90;;;3.60;;
27275;SDS011;14772;47.398;8.080;2022-07-06T18:25:14;10.83;;;3.83;;
27275;SDS011;14772;47.398;8.080;2022-07-06T18:30:12;12.33;;;3.80;;
27275;SDS011;14772;47.398;8.080;2022-07-06T18:35:09;12.67;;;3.77;;
27275;SDS011;14772;47.398;8.080;2022-07-06T18:40:08;10.93;;;3.70;;
27275;SDS011;14772;47.398;8.080;2022-07-06T18:45:07;11.03;;;4.23;;
27275;SDS011;14772;47.398;8.080;2022-07-06T18:50:06;9.53;;;3.60;;
27275;SDS011;14772;47.398;8.080;2022-07-06T18:55:06;9.80;;;3.60;;
27275;SDS011;14772;47.398;8.080;2022-07-06T19:00:06;11.37;;;3.80;;
27275;SDS011;14772;47.398;8.080;2022-07-06T19:05:05;10.17;;;3.80;;
27275;SDS011;14772;47.398;8.080;2022-07-06T19:10:03;9.73;;;3.43;;
27275;SDS011;14772;47.398;8.080;2022-07-06T19:15:01;9.93;;;4.07;;
27275;SDS011;14772;47.398;8.080;2022-07-06T19:19:58;11.17;;;3.77;;
27275;SDS011;14772;47.398;8.080;2022-07-06T19:24:55;9.33;;;3.80;;
27275;SDS011;14772;47.398;8.080;2022-07-06T19:29:52;10.57;;;3.50;;
27275;SDS011;14772;47.398;8.080;2022-07-06T19:34:50;10.63;;;3.67;;
27275;SDS011;14772;47.398;8.080;2022-07-06T19:39:47;9.67;;;3.33;;
27275;SDS011;14772;47.398;8.080;2022-07-06T19:44:44;9.73;;;3.27;;
27275;SDS011;14772;47.398;8.080;2022-07-06T19:49:41;10.03;;;3.20;;
27275;SDS011;14772;47.398;8.080;2022-07-06T19:54:38;9.07;;;3.10;;
27275;SDS011;14772;47.398;8.080;2022-07-06T19:59:36;9.03;;;2.87;;
27275;SDS011;14772;47.398;8.080;2022-07-06T20:04:33;7.00;;;2.70;;
27275;SDS011;14772;47.398;8.080;2022-07-06T20:09:30;8.40;;;3.20;;
27275;SDS011;14772;47.398;8.080;2022-07-06T20:14:27;9.10;;;3.10;;
27275;SDS011;14772;47.398;8.080;2022-07-06T20:19:25;8.83;;;3.10;;
27275;SDS011;14772;47.398;8.080;2022-07-06T20:24:22;9.13;;;2.90;;
27275;SDS011;14772;47.398;8.080;2022-07-06T20:29:19;8.83;;;3.03;;
27275;SDS011;14772;47.398;8.080;2022-07-06T20:34:16;10.63;;;3.20;;
27275;SDS011;14772;47.398;8.080;2022-07-06T20:39:13;10.17;;;3.47;;
27275;SDS011;14772;47.398;8.080;2022-07-06T20:44:11;9.90;;;3.20;;
27275;SDS011;14772;47.398;8.080;2022-07-06T20:49:08;11.93;;;3.40;;
27275;SDS011;14772;47.398;8.080;2022-07-06T20:54:05;10.63;;;3.60;;
27275;SDS011;14772;47.398;8.080;2022-07-06T20:59:02;9.07;;;3.40;;
27275;SDS011;14772;47.398;8.080;2022-07-06T21:03:59;8.83;;;3.20;;
27275;SDS011;14772;47.398;8.080;2022-07-06T21:08:57;9.77;;;3.00;;
27275;SDS011;14772;47.398;8.080;2022-07-06T21:13:54;8.87;;;2.60;;
27275;SDS011;14772;47.398;8.080;2022-07-06T21:18:51;7.77;;;2.73;;
27275;SDS011;14772;47.398;8.080;2022-07-06T21:23:48;8.23;;;2.60;;
27275;SDS011;14772;47.398;8.080;2022-07-06T21:28:45;9.47;;;2.73;;
27275;SDS011;14772;47.398;8.080;2022-07-06T21:33:43;8.17;;;2.30;;
27275;SDS011;14772;47.398;8.080;2022-07-06T21:38:40;6.00;;;2.17;;
27275;SDS011;14772;47.398;8.080;2022-07-06T21:43:37;6.40;;;2.13;;
27275;SDS011;14772;47.398;8.080;2022-07-06T21:48:34;7.20;;;2.70;;
27275;SDS011;14772;47.398;8.080;2022-07-06T21:53:31;7.50;;;2.77;;
27275;SDS011;14772;47.398;8.080;2022-07-06T21:58:29;7.97;;;2.57;;
27275;SDS011;14772;47.398;8.080;2022-07-06T22:03:26;8.00;;;2.50;;
27275;SDS011;14772;47.398;8.080;2022-07-06T22:08:23;8.10;;;2.50;;
27275;SDS011;14772;47.398;8.080;2022-07-06T22:13:20;9.07;;;2.83;;
27275;SDS011;14772;47.398;8.080;2022-07-06T22:18:18;9.27;;;2.70;;
27275;SDS011;14772;47.398;8.080;2022-07-06T22:23:15;9.37;;;2.80;;
27275;SDS011;14772;47.398;8.080;2022-07-06T22:28:12;7.50;;;2.80;;
27275;SDS011;14772;47.398;8.080;2022-07-06T22:33:10;8.13;;;2.80;;
27275;SDS011;14772;47.398;8.080;2022-07-06T22:38:07;8.97;;;2.70;;
27275;SDS011;14772;47.398;8.080;2022-07-06T22:43:05;9.00;;;2.73;;
27275;SDS011;14772;47.398;8.080;2022-07-06T22:48:03;9.43;;;3.00;;
27275;SDS011;14772;47.398;8.080;2022-07-06T22:53:00;9.93;;;2.80;;
27275;SDS011;14772;47.398;8.080;2022-07-06T22:57:58;10.03;;;2.77;;
27275;SDS011;14772;47.398;8.080;2022-07-06T23:02:55;8.37;;;2.77;;
27275;SDS011;14772;47.398;8.080;2022-07-06T23:07:53;8.47;;;2.60;;
27275;SDS011;14772;47.398;8.080;2022-07-06T23:12:50;11.37;;;2.97;;
27275;SDS011;14772;47.398;8.080;2022-07-06T23:17:48;8.73;;;2.80;;
27275;SDS011;14772;47.398;8.080;2022-07-06T23:22:45;8.43;;;2.60;;
27275;SDS011;14772;47.398;8.080;2022-07-06T23:27:42;8.23;;;2.43;;
27275;SDS011;14772;47.398;8.080;2022-07-06T23:32:40;6.80;;;2.50;;
27275;SDS011;14772;47.398;8.080;2022-07-06T23:37:37;8.40;;;2.40;;
27275;SDS011;14772;47.398;8.080;2022-07-06T23:42:35;9.67;;;2.87;;
27275;SDS011;14772;47.398;8.080;2022-07-06T23:47:32;7.47;;;2.10;;
27275;SDS011;14772;47.398;8.080;2022-07-06T23:52:30;8.57;;;2.33;;
27275;SDS011;14772;47.398;8.080;2022-07-06T23:57:27;7.73;;;2.10;;
